createdAt,value
2018-11-22T12:16:25.715Z,99417.91
2018-11-22T12:18:54.502Z,99417.05
2018-11-22T12:21:23.955Z,99414.16
2018-11-22T12:23:58.633Z,99413.15
2018-11-22T12:26:33.129Z,99418.47
2018-11-22T12:29:05.862Z,99421.92
2018-11-22T12:31:37.283Z,99415.00
2018-11-22T12:34:18.644Z,99418.70
2018-11-22T12:37:01.274Z,99424.44
2018-11-22T12:39:30.726Z,99414.73
2018-11-22T12:42:09.286Z,99415.69
2018-11-22T12:44:45.451Z,99411.05
2018-11-22T12:47:21.317Z,99412.77
2018-11-22T12:49:59.846Z,99408.95
2018-11-22T12:52:35.906Z,99407.23
2018-11-22T12:55:10.857Z,99415.38
2018-11-22T12:57:50.120Z,99413.67
2018-11-22T13:00:20.795Z,99406.37
2018-11-22T13:02:59.758Z,99409.74
2018-11-22T13:05:33.889Z,99407.42
2018-11-22T13:08:06.716Z,99406.11
2018-11-22T13:10:39.859Z,99405.56
2018-11-22T13:13:08.648Z,99404.41
2018-11-22T13:15:38.370Z,99409.13
2018-11-22T13:18:16.043Z,99406.17
2018-11-22T13:20:46.033Z,99407.11
2018-11-22T13:23:26.825Z,99407.00
2018-11-22T13:28:49.218Z,99407.27
2018-11-22T13:31:21.130Z,99402.73
2018-11-22T13:33:57.801Z,99408.02
2018-11-22T13:36:29.551Z,99404.95
2018-11-22T13:39:00.686Z,99410.07
2018-11-22T13:41:35.568Z,99415.36
2018-11-22T13:44:07.404Z,99411.61
2018-11-22T13:46:36.910Z,99419.70
2018-11-22T13:49:12.460Z,99422.78
2018-11-22T13:51:43.051Z,99421.28
2018-11-22T13:54:18.501Z,99419.19
2018-11-22T13:56:53.180Z,99429.76
2018-11-22T13:59:30.608Z,99434.84
2018-11-22T14:02:03.007Z,99434.36
2018-11-22T14:04:34.061Z,99434.57
2018-11-22T14:07:07.542Z,99436.90
2018-11-22T14:09:47.258Z,99432.42
2018-11-22T14:12:18.422Z,99440.45
2018-11-22T14:14:59.151Z,99431.44
2018-11-22T14:17:34.073Z,99438.69
2018-11-22T14:20:09.363Z,99433.19
2018-11-22T14:22:39.076Z,99438.19
2018-11-22T14:25:08.751Z,99440.83
2018-11-22T14:27:43.743Z,99448.38
2018-11-22T14:30:15.840Z,99450.81
2018-11-22T14:32:48.932Z,99445.02
2018-11-22T14:35:19.782Z,99445.16
2018-11-22T14:37:49.827Z,99445.03
2018-11-22T14:40:25.353Z,99435.83
2018-11-22T14:43:01.653Z,99439.02
2018-11-22T14:45:36.173Z,99448.00
2018-11-22T14:48:06.565Z,99445.17
2018-11-22T14:50:43.353Z,99439.30
2018-11-22T14:53:16.930Z,99441.46
2018-11-22T14:55:56.100Z,99440.32
2018-11-22T14:58:27.328Z,99442.82
2018-11-22T15:00:57.489Z,99437.94
2018-11-22T15:03:32.844Z,99441.46
2018-11-22T15:06:02.667Z,99445.19
2018-11-22T15:08:45.944Z,99446.77
2018-11-22T15:11:19.443Z,99450.63
2018-11-22T15:13:51.371Z,99445.23
2018-11-22T15:16:22.213Z,99438.89
2018-11-22T15:18:51.790Z,99441.83
2018-11-22T15:21:22.590Z,99433.73
2018-11-22T15:23:55.296Z,99436.80
2018-11-22T15:26:36.469Z,99442.22
2018-11-22T15:29:06.726Z,99438.04
2018-11-22T15:31:39.391Z,99432.12
2018-11-22T15:34:14.610Z,99434.28
2018-11-22T15:36:43.878Z,99434.23
2018-11-22T15:39:16.163Z,99435.29
2018-11-22T15:41:46.796Z,99425.80
2018-11-22T15:44:21.182Z,99423.18
2018-11-22T15:46:52.548Z,99421.16
2018-11-22T15:49:24.344Z,99411.58
2018-11-22T15:51:53.424Z,99418.61
2018-11-22T15:54:22.327Z,99414.34
2018-11-22T15:56:51.898Z,99419.47
2018-11-22T15:59:20.568Z,99421.14
2018-11-22T16:01:49.905Z,99430.91
2018-11-22T16:04:18.833Z,99429.98
2018-11-22T16:06:47.990Z,99432.95
2018-11-22T16:09:17.037Z,99437.85
2018-11-22T16:11:47.778Z,99434.51
2018-11-22T16:14:16.690Z,99436.99
2018-11-22T16:16:45.651Z,99440.76
2018-11-22T16:19:16.318Z,99436.78
2018-11-22T16:21:45.552Z,99442.52
2018-11-22T16:24:14.386Z,99450.11
2018-11-22T16:26:43.397Z,99456.80
2018-11-22T16:29:12.591Z,99456.74
2018-11-22T16:31:45.243Z,99459.31
2018-11-22T16:34:14.797Z,99462.09
2018-11-22T16:36:44.851Z,99462.59
2018-11-22T16:39:15.550Z,99464.95
2018-11-22T16:41:48.371Z,99464.80
2018-11-22T16:44:24.583Z,99467.67
2018-11-22T16:46:53.502Z,99466.41
2018-11-22T16:49:23.363Z,99460.52
2018-11-22T16:51:52.685Z,99460.42
2018-11-22T16:54:22.923Z,99456.09
2018-11-22T16:56:52.621Z,99460.12
2018-11-22T16:59:28.157Z,99459.41
2018-11-22T17:01:56.982Z,99451.20
2018-11-22T17:04:28.534Z,99459.16
2018-11-22T17:06:57.880Z,99461.52
2018-11-22T17:09:28.578Z,99461.07
2018-11-22T17:11:57.389Z,99461.57
2018-11-22T17:14:26.735Z,99461.23
2018-11-22T17:16:55.875Z,99466.16
2018-11-22T17:19:24.550Z,99468.98
2018-11-22T17:21:53.330Z,99474.86
2018-11-22T17:24:22.438Z,99478.41
2018-11-22T17:26:52.058Z,99470.77
2018-11-22T17:29:20.887Z,99466.96
2018-11-22T17:31:49.830Z,99473.30
2018-11-22T17:34:19.312Z,99469.78
2018-11-22T17:36:53.875Z,99470.03
2018-11-22T17:39:23.702Z,99473.86
2018-11-22T17:41:53.458Z,99470.62
2018-11-22T17:44:23.406Z,99462.70
2018-11-22T17:46:53.000Z,99463.04
2018-11-22T17:49:23.727Z,99460.21
2018-11-22T17:51:53.286Z,99462.13
2018-11-22T17:54:24.026Z,99458.72
2018-11-22T17:56:53.187Z,99463.64
2018-11-22T17:59:28.068Z,99461.45
2018-11-22T18:01:58.058Z,99458.39
2018-11-22T18:04:26.918Z,99464.19
2018-11-22T18:06:59.336Z,99462.52
2018-11-22T18:09:28.727Z,99463.83
2018-11-22T18:11:58.018Z,99466.25
2018-11-22T18:14:27.704Z,99470.38
2018-11-22T18:16:57.166Z,99473.80
2018-11-22T18:19:26.315Z,99470.83
2018-11-22T18:21:55.463Z,99469.23
2018-11-22T18:24:24.650Z,99477.41
2018-11-22T18:26:53.766Z,99480.09
2018-11-22T18:29:25.062Z,99473.65
2018-11-22T18:31:54.926Z,99468.92
2018-11-22T18:34:26.171Z,99472.45
2018-11-22T18:36:55.689Z,99481.19
2018-11-22T18:39:24.857Z,99475.16
2018-11-22T18:41:53.922Z,99479.59
2018-11-22T18:44:23.998Z,99471.54
2018-11-22T18:46:53.226Z,99472.53
2018-11-22T18:49:23.290Z,99468.41
2018-11-22T18:51:52.341Z,99475.86
2018-11-22T18:54:22.365Z,99479.02
2018-11-22T18:56:51.706Z,99473.43
2018-11-22T18:59:20.367Z,99471.05
2018-11-22T19:01:49.515Z,99472.47
2018-11-22T19:04:18.118Z,99474.72
2018-11-22T19:06:47.574Z,99476.92
2018-11-22T19:09:17.093Z,99481.79
2018-11-22T19:11:47.742Z,99479.53
2018-11-22T19:14:19.886Z,99478.78
2018-11-22T19:16:49.805Z,99478.14
2018-11-22T19:19:19.666Z,99475.63
2018-11-22T19:21:49.753Z,99478.78
2018-11-22T19:24:20.851Z,99482.75
2018-11-22T19:26:50.789Z,99481.88
2018-11-22T19:29:21.224Z,99485.48
2018-11-22T19:31:52.122Z,99489.95
2018-11-22T19:34:22.348Z,99493.02
2018-11-22T19:36:51.494Z,99490.85
2018-11-22T19:39:21.147Z,99490.85
2018-11-22T19:41:50.536Z,99498.64
2018-11-22T19:44:22.149Z,99497.16
2018-11-22T19:46:51.910Z,99493.59
2018-11-22T19:49:21.498Z,99495.63
2018-11-22T19:51:52.209Z,99499.91
2018-11-22T19:54:21.534Z,99499.06
2018-11-22T19:56:50.956Z,99496.20
2018-11-22T19:59:21.350Z,99505.36
2018-11-22T20:01:50.244Z,99498.78
2018-11-22T20:04:23.544Z,99494.69
2018-11-22T20:06:52.526Z,99491.25
2018-11-22T20:09:24.685Z,99497.52
2018-11-22T20:11:54.055Z,99497.97
2018-11-22T20:14:29.006Z,99499.63
2018-11-22T20:16:58.466Z,99503.19
2018-11-22T20:19:27.706Z,99513.30
2018-11-22T20:21:57.201Z,99507.97
2018-11-22T20:24:26.864Z,99511.08
2018-11-22T20:27:00.289Z,99507.29
2018-11-22T20:29:28.912Z,99503.22
2018-11-22T20:31:58.203Z,99498.05
2018-11-22T20:34:27.882Z,99499.17
2018-11-22T20:36:56.908Z,99499.75
2018-11-22T20:39:26.088Z,99502.91
2018-11-22T20:41:54.994Z,99507.39
2018-11-22T20:44:24.010Z,99513.72
2018-11-22T20:46:53.042Z,99505.80
2018-11-22T20:49:23.702Z,99512.81
2018-11-22T20:51:52.761Z,99510.39
2018-11-22T20:54:21.656Z,99510.84
2018-11-22T20:56:50.469Z,99511.30
2018-11-22T20:59:19.090Z,99519.05
2018-11-22T21:01:51.770Z,99513.82
2018-11-22T21:04:18.136Z,99512.38
2018-11-22T21:06:47.041Z,99505.23
2018-11-22T21:09:16.170Z,99507.39
2018-11-22T21:11:46.010Z,99504.54
2018-11-22T21:14:15.106Z,99504.50
2018-11-22T21:16:44.929Z,99507.34
2018-11-22T21:19:13.966Z,99507.39
2018-11-22T21:21:43.030Z,99501.92
2018-11-22T21:24:12.033Z,99498.78
2018-11-22T21:26:41.464Z,99502.02
2018-11-22T21:29:11.346Z,99503.38
2018-11-22T21:31:41.175Z,99496.47
2018-11-22T21:34:11.462Z,99502.74
2018-11-22T21:36:40.146Z,99505.64
2018-11-22T21:39:10.358Z,99503.92
2018-11-22T21:41:39.507Z,99502.57
2018-11-22T21:44:09.478Z,99501.76
2018-11-22T21:46:39.536Z,99507.47
2018-11-22T21:49:08.454Z,99503.52
2018-11-22T21:51:39.555Z,99498.87
2018-11-22T21:54:08.159Z,99495.09
2018-11-22T21:56:37.441Z,99493.47
2018-11-22T21:59:06.974Z,99501.34
2018-11-22T22:01:36.271Z,99493.50
2018-11-22T22:04:06.494Z,99495.26
2018-11-22T22:06:36.446Z,99494.98
2018-11-22T22:09:07.462Z,99489.40
2018-11-22T22:11:37.633Z,99485.93
2018-11-22T22:14:06.725Z,99496.09
2018-11-22T22:16:36.437Z,99490.06
2018-11-22T22:19:05.954Z,99495.36
2018-11-22T22:21:35.503Z,99492.43
2018-11-22T22:24:04.558Z,99489.53
2018-11-22T22:26:34.004Z,99491.73
2018-11-22T22:29:04.618Z,99491.28
2018-11-22T22:31:33.988Z,99493.65
2018-11-22T22:34:02.601Z,99492.83
2018-11-22T22:36:31.647Z,99494.62
2018-11-22T22:39:01.286Z,99495.64
2018-11-22T22:41:31.975Z,99491.81
2018-11-22T22:44:01.050Z,99495.42
2018-11-22T22:46:30.545Z,99484.88
2018-11-22T22:48:59.784Z,99488.34
2018-11-22T22:51:29.383Z,99491.56
2018-11-22T22:53:59.088Z,99487.34
2018-11-22T22:56:28.531Z,99488.39
2018-11-22T22:58:58.249Z,99489.30
2018-11-22T23:01:27.980Z,99485.01
2018-11-22T23:03:57.524Z,99489.29
2018-11-22T23:06:27.662Z,99485.67
2018-11-22T23:08:56.773Z,99478.22
2018-11-22T23:11:29.674Z,99482.69
2018-11-22T23:13:59.817Z,99479.83
2018-11-22T23:16:28.675Z,99478.56
2018-11-22T23:18:58.632Z,99464.33
2018-11-22T23:21:28.810Z,99464.81
2018-11-22T23:23:58.498Z,99463.55
2018-11-22T23:26:27.439Z,99461.88
2018-11-22T23:28:58.089Z,99457.51
2018-11-22T23:31:27.263Z,99460.70
2018-11-22T23:33:56.638Z,99468.92
2018-11-22T23:36:25.589Z,99467.55
2018-11-22T23:38:55.349Z,99464.67
2018-11-22T23:41:25.018Z,99475.09
2018-11-22T23:43:53.818Z,99462.92
2018-11-22T23:46:26.233Z,99462.92
2018-11-22T23:48:55.522Z,99466.48
2018-11-22T23:51:24.993Z,99466.45
2018-11-22T23:53:53.937Z,99462.03
2018-11-22T23:56:22.976Z,99471.56
2018-11-22T23:58:51.845Z,99480.34
